Time;durP1;ratioP1;P1;durP2;ratioP2;P2;SDS_P1;SDS_P2;PMS_P1;PMS_P2;Temp;Humidity;BMP_temperature;BMP_pressure;BME280_temperature;BME280_humidity;BME280_pressure;Samples;Min_cycle;Max_cycle;Signal;HPM_P1;HPM_P2
2022/08/04 00:02:05;;;;;;;5.73;2.40;;;19.20;78.10;;;;;;5063629;28;20282;-67
2022/08/04 00:04:36;;;;;;;5.97;3.07;;;19.20;78.20;;;;;;5065249;28;20056;-67
2022/08/04 00:07:31;;;;;;;9.53;2.50;;;19.20;78.50;;;;;;5064476;28;20460;-67
2022/08/04 00:10:02;;;;;;;4.43;2.73;;;19.20;78.60;;;;;;5032372;28;20518;-67
2022/08/04 00:12:32;;;;;;;8.07;2.43;;;19.10;78.50;;;;;;5047661;28;20036;-67
2022/08/04 00:15:00;;;;;;;8.13;2.30;;;19.10;78.60;;;;;;5064483;28;20481;-67
2022/08/04 00:17:39;;;;;;;9.87;3.37;;;19.10;78.80;;;;;;5043894;28;20048;-67
2022/08/04 00:20:08;;;;;;;6.80;2.93;;;19.10;78.80;;;;;;5081285;28;20283;-67
2022/08/04 00:22:34;;;;;;;9.50;3.17;;;19.00;78.90;;;;;;5042520;28;20093;-67
2022/08/04 00:25:04;;;;;;;8.27;3.23;;;19.00;78.90;;;;;;5062276;28;20040;-67
2022/08/04 00:27:31;;;;;;;7.53;3.17;;;19.10;79.00;;;;;;5060648;28;20591;-67
2022/08/04 00:29:58;;;;;;;7.73;2.63;;;19.00;79.10;;;;;;5064089;28;20098;-66
2022/08/04 00:32:27;;;;;;;7.33;3.00;;;19.00;79.30;;;;;;5059218;28;20057;-67
2022/08/04 00:34:56;;;;;;;6.53;3.03;;;19.00;79.30;;;;;;5047744;28;20044;-67
2022/08/04 00:37:24;;;;;;;8.10;3.20;;;19.00;79.10;;;;;;5060343;28;20051;-67
2022/08/04 00:39:55;;;;;;;9.80;3.13;;;19.00;79.10;;;;;;5058873;28;20108;-67
2022/08/04 00:42:50;;;;;;;7.13;2.80;;;18.90;79.30;;;;;;5058686;28;20413;-67
2022/08/04 00:46:03;;;;;;;7.65;3.00;;;18.90;79.50;;;;;;5059742;28;20087;-67
2022/08/04 00:48:39;;;;;;;11.00;3.50;;;18.90;79.40;;;;;;5043589;28;20149;-67
2022/08/04 00:51:21;;;;;;;8.43;2.77;;;18.90;79.60;;;;;;5063555;28;20051;-67
2022/08/04 00:54:11;;;;;;;4.87;2.63;;;18.90;79.60;;;;;;5042691;28;20295;-66
2022/08/04 00:56:52;;;;;;;7.27;3.00;;;18.90;79.40;;;;;;5042938;28;20287;-67
2022/08/04 00:59:52;;;;;;;9.30;3.23;;;18.80;79.60;;;;;;5056191;28;20045;-67
2022/08/04 01:02:45;;;;;;;7.37;2.70;;;18.90;79.40;;;;;;5063427;28;20380;-67
2022/08/04 01:05:30;;;;;;;9.10;2.97;;;18.80;79.40;;;;;;5062443;28;20082;-67
2022/08/04 01:08:25;;;;;;;8.20;3.00;;;18.80;79.30;;;;;;5062232;28;20287;-67
2022/08/04 01:11:12;;;;;;;7.27;2.77;;;18.90;79.60;;;;;;5061938;28;20287;-67
2022/08/04 01:14:15;;;;;;;6.17;2.80;;;18.80;79.50;;;;;;5059315;28;20029;-67
2022/08/04 01:16:50;;;;;;;6.87;2.87;;;18.80;79.70;;;;;;5052961;28;20748;-67
2022/08/04 01:19:34;;;;;;;;;;;18.80;79.80;;;;;;5047339;28;20352;-67
2022/08/04 01:22:30;;;;;;;8.10;3.17;;;18.70;79.70;;;;;;5061488;28;20353;-67
2022/08/04 01:24:59;;;;;;;13.70;3.83;;;18.70;79.70;;;;;;5046724;28;20315;-67
2022/08/04 01:27:47;;;;;;;10.17;3.63;;;18.80;79.90;;;;;;5064032;28;20726;-67
2022/08/04 01:30:13;;;;;;;13.43;3.60;;;18.80;80.00;;;;;;5066484;28;20320;-67
2022/08/04 01:32:58;;;;;;;11.20;3.80;;;18.80;80.10;;;;;;5064417;28;20295;-67
2022/08/04 01:35:28;;;;;;;9.55;3.70;;;18.90;80.00;;;;;;5064008;28;20336;-67
2022/08/04 01:38:15;;;;;;;7.80;3.70;;;18.90;80.00;;;;;;5065592;28;20075;-67
2022/08/04 01:40:43;;;;;;;9.30;3.17;;;18.90;80.20;;;;;;5067503;28;20308;-67
2022/08/04 01:43:10;;;;;;;12.50;3.67;;;18.90;80.40;;;;;;5049915;28;20279;-67
2022/08/04 01:45:40;;;;;;;7.33;3.03;;;19.00;80.30;;;;;;5048378;28;20279;-67
2022/08/04 01:48:07;;;;;;;8.37;3.10;;;19.00;80.30;;;;;;5049992;28;20713;-67
2022/08/04 01:50:35;;;;;;;9.20;3.40;;;19.00;80.20;;;;;;5065569;28;20282;-67
2022/08/04 01:53:03;;;;;;;11.10;4.20;;;19.00;80.20;;;;;;5067031;28;20044;-67
2022/08/04 01:55:29;;;;;;;7.27;3.33;;;19.00;80.30;;;;;;5066883;28;20563;-67
2022/08/04 01:57:58;;;;;;;7.63;3.13;;;19.00;80.70;;;;;;5066208;28;20705;-67
2022/08/04 02:00:26;;;;;;;9.23;4.10;;;19.00;80.40;;;;;;5063546;28;20281;-67
2022/08/04 02:02:54;;;;;;;7.83;4.33;;;19.00;80.30;;;;;;5045045;28;20453;-67
2022/08/04 02:05:22;;;;;;;10.37;4.70;;;19.00;80.20;;;;;;5063170;28;20525;-67
2022/08/04 02:08:00;;;;;;;8.07;4.00;;;19.00;80.40;;;;;;5064851;28;20283;-67
2022/08/04 02:10:29;;;;;;;11.57;4.33;;;18.90;80.30;;;;;;5062968;28;20275;-67
2022/08/04 02:13:09;;;;;;;7.70;4.33;;;18.90;80.30;;;;;;5066358;28;20283;-67
2022/08/04 02:15:45;;;;;;;8.43;3.67;;;18.80;80.50;;;;;;5049094;28;20036;-67
2022/08/04 02:18:21;;;;;;;6.77;3.80;;;18.80;80.50;;;;;;5066466;28;20279;-67
2022/08/04 02:20:54;;;;;;;12.13;4.57;;;18.80;81.10;;;;;;5064448;28;20074;-67
2022/08/04 02:23:36;;;;;;;7.67;4.20;;;18.70;81.00;;;;;;5065927;28;20310;-67
2022/08/04 02:26:04;;;;;;;9.00;4.27;;;18.70;81.10;;;;;;5065830;28;20333;-67
2022/08/04 02:28:47;;;;;;;6.37;3.70;;;18.70;81.10;;;;;;5082629;28;20302;-67
2022/08/04 02:31:23;;;;;;;11.93;5.20;;;18.70;81.30;;;;;;5065755;28;20051;-67
2022/08/04 02:34:24;;;;;;;7.97;4.03;;;18.70;81.30;;;;;;5078100;28;20495;-67
2022/08/04 02:36:51;;;;;;;11.40;4.83;;;18.70;81.30;;;;;;5049740;28;20495;-67
2022/08/04 02:39:19;;;;;;;10.50;4.50;;;18.70;81.20;;;;;;5081985;28;20302;-67
2022/08/04 02:41:47;;;;;;;10.70;4.67;;;18.60;81.30;;;;;;5045604;28;20044;-67
2022/08/04 02:44:15;;;;;;;9.67;5.00;;;18.60;82.10;;;;;;5066061;28;20405;-66
2022/08/04 02:46:41;;;;;;;9.30;4.87;;;18.60;82.30;;;;;;5061321;28;20496;-67
2022/08/04 02:49:09;;;;;;;11.87;5.30;;;18.60;82.00;;;;;;5062869;28;20378;-67
2022/08/04 02:51:43;;;;;;;10.93;4.87;;;18.60;82.10;;;;;;5063123;28;20041;-67
2022/08/04 02:54:10;;;;;;;13.65;5.55;;;18.60;82.70;;;;;;5058142;28;20297;-67
2022/08/04 02:56:37;;;;;;;11.77;4.43;;;18.60;82.50;;;;;;5038497;28;20045;-67
2022/08/04 02:59:10;;;;;;;11.70;4.67;;;18.60;82.40;;;;;;5060512;28;20372;-67
2022/08/04 03:01:37;;;;;;;9.03;5.23;;;18.60;82.50;;;;;;5046692;28;20040;-67
2022/08/04 03:04:39;;;;;;;11.33;4.90;;;18.60;82.60;;;;;;5060660;28;20739;-66
2022/08/04 03:07:53;;;;;;;9.47;4.43;;;18.60;82.30;;;;;;5061205;28;20611;-67
2022/08/04 03:10:46;;;;;;;10.00;4.20;;;18.60;82.10;;;;;;5055965;28;20606;-67
2022/08/04 03:13:55;;;;;;;10.43;4.50;;;18.60;82.10;;;;;;5064375;28;20043;-67
2022/08/04 03:16:39;;;;;;;7.43;3.83;;;18.60;82.20;;;;;;5081256;28;20663;-67
2022/08/04 03:19:35;;;;;;;10.17;4.77;;;18.60;82.00;;;;;;5064461;28;20414;-67
2022/08/04 03:22:45;;;;;;;10.80;4.30;;;18.60;82.00;;;;;;5065526;28;20294;-67
2022/08/04 03:25:41;;;;;;;9.60;4.30;;;18.60;82.10;;;;;;5053428;28;20468;-67
2022/08/04 03:28:29;;;;;;;11.00;4.40;;;18.60;82.00;;;;;;5047907;28;20302;-67
2022/08/04 03:31:21;;;;;;;9.47;4.60;;;18.60;82.10;;;;;;5076911;28;20389;-67
2022/08/04 03:34:20;;;;;;;9.77;3.73;;;18.50;82.00;;;;;;5061682;28;20378;-67
2022/08/04 03:37:24;;;;;;;10.30;4.37;;;18.50;82.20;;;;;;5047165;28;20318;-67
2022/08/04 03:40:08;;;;;;;11.30;4.13;;;18.50;82.30;;;;;;5026134;28;20292;-67
2022/08/04 03:42:37;;;;;;;9.27;4.00;;;18.50;82.20;;;;;;5076112;28;20322;-67
2022/08/04 03:45:28;;;;;;;9.73;4.00;;;18.50;82.30;;;;;;5058748;28;20302;-67
2022/08/04 03:48:23;;;;;;;6.97;3.97;;;18.50;82.50;;;;;;5057479;28;20283;-67
2022/08/04 03:54:37;;;;;;;6.07;4.20;;;18.50;83.00;;;;;;5071924;28;20045;-67
2022/08/04 03:57:46;;;;;;;10.47;4.30;;;18.40;83.40;;;;;;5061295;28;20302;-67
2022/08/04 04:00:32;;;;;;;11.57;4.43;;;18.40;83.70;;;;;;5046564;28;20289;-67
2022/08/04 04:03:14;;;;;;;12.73;4.83;;;18.40;84.00;;;;;;5062572;28;20290;-67
2022/08/04 04:05:56;;;;;;;8.77;4.53;;;18.40;84.20;;;;;;5042089;28;20172;-67
2022/08/04 04:08:54;;;;;;;10.70;5.00;;;18.40;84.10;;;;;;5064298;28;20307;-67
2022/08/04 04:12:04;;;;;;;10.90;4.60;;;18.40;83.70;;;;;;5045904;28;20113;-67
2022/08/04 04:15:08;;;;;;;9.20;4.57;;;18.40;83.70;;;;;;5004177;28;20342;-67
2022/08/04 04:18:14;;;;;;;11.03;4.57;;;18.40;83.60;;;;;;5056555;28;20348;-67
2022/08/04 04:21:10;;;;;;;9.85;3.88;;;18.50;83.50;;;;;;5062382;28;20040;-67
2022/08/04 04:24:01;;;;;;;11.03;4.40;;;18.50;83.50;;;;;;5061021;28;20048;-67
2022/08/04 04:26:39;;;;;;;8.90;4.37;;;18.50;83.40;;;;;;5053048;28;20055;-67
2022/08/04 04:29:22;;;;;;;8.80;3.93;;;18.60;83.50;;;;;;5060338;28;20040;-67
2022/08/04 04:31:57;;;;;;;9.43;3.97;;;18.60;83.50;;;;;;5062272;28;20059;-67
2022/08/04 04:34:41;;;;;;;8.98;3.70;;;18.70;83.70;;;;;;5064108;28;20099;-67
2022/08/04 04:37:56;;;;;;;11.83;4.23;;;18.70;83.80;;;;;;5053492;28;20082;-67
2022/08/04 04:40:32;;;;;;;8.53;3.93;;;18.80;83.80;;;;;;5043646;28;20048;-67
2022/08/04 04:43:10;;;;;;;10.80;4.40;;;18.90;83.80;;;;;;5063763;28;20040;-67
2022/08/04 04:45:54;;;;;;;10.50;4.17;;;18.90;83.70;;;;;;5057800;28;20045;-67
2022/08/04 04:48:53;;;;;;;7.73;4.13;;;19.00;83.80;;;;;;5056807;28;20068;-67
2022/08/04 04:51:24;;;;;;;9.20;4.20;;;19.00;83.90;;;;;;5059511;28;20037;-67
2022/08/04 04:54:03;;;;;;;7.57;4.10;;;19.10;84.20;;;;;;5065225;28;20366;-65
2022/08/04 04:57:07;;;;;;;8.63;3.80;;;19.20;83.90;;;;;;5073953;28;20062;-65
2022/08/04 04:59:38;;;;;;;9.67;3.93;;;19.30;83.90;;;;;;5060800;28;20417;-65
2022/08/04 05:02:45;;;;;;;9.47;3.70;;;19.30;83.70;;;;;;5065871;28;20036;-65
2022/08/04 05:05:32;;;;;;;8.50;4.20;;;19.50;83.50;;;;;;5059424;28;20512;-65
2022/08/04 05:08:07;;;;;;;7.17;3.93;;;19.60;83.40;;;;;;5081686;28;20067;-65
2022/08/04 05:10:48;;;;;;;10.13;4.22;;;19.70;83.20;;;;;;5064021;28;20116;-67
2022/08/04 05:13:32;;;;;;;9.70;4.07;;;19.80;83.10;;;;;;5063189;28;20033;-67
2022/08/04 05:16:09;;;;;;;6.53;3.33;;;19.90;83.10;;;;;;5056159;28;20040;-67
2022/08/04 05:18:39;;;;;;;12.30;3.70;;;20.10;83.10;;;;;;5079065;28;20120;-67
2022/08/04 05:21:32;;;;;;;11.97;3.00;;;20.20;83.00;;;;;;5066213;28;20055;-67
2022/08/04 05:24:03;;;;;;;7.47;3.33;;;20.40;82.80;;;;;;5063774;28;20486;-67
2022/08/04 05:26:34;;;;;;;5.97;3.67;;;20.60;82.60;;;;;;5055663;28;20055;-67
2022/08/04 05:29:06;;;;;;;6.70;3.50;;;20.70;81.90;;;;;;5066966;28;20082;-67
2022/08/04 05:31:36;;;;;;;9.20;3.47;;;20.80;81.60;;;;;;5067204;28;20054;-67
2022/08/04 05:34:09;;;;;;;7.27;3.33;;;20.90;81.40;;;;;;5050210;28;20082;-67
2022/08/04 05:36:40;;;;;;;8.23;3.93;;;21.10;81.10;;;;;;5067169;28;20097;-67
2022/08/04 05:39:11;;;;;;;11.47;3.97;;;21.20;80.90;;;;;;5080257;28;20045;-67
2022/08/04 05:41:39;;;;;;;10.00;4.30;;;21.20;80.80;;;;;;5049880;28;20508;-67
2022/08/04 05:44:07;;;;;;;8.17;4.30;;;21.30;80.60;;;;;;5079192;28;20040;-67
2022/08/04 05:46:35;;;;;;;10.20;3.57;;;21.40;80.60;;;;;;5066784;28;20071;-67
2022/08/04 05:49:02;;;;;;;7.33;3.90;;;21.50;80.40;;;;;;5048284;28;20044;-67
2022/08/04 05:51:29;;;;;;;6.90;3.50;;;21.70;80.20;;;;;;5066326;28;20047;-67
2022/08/04 05:53:56;;;;;;;7.83;3.77;;;21.80;79.90;;;;;;5081923;28;20079;-67
2022/08/04 05:56:23;;;;;;;9.07;3.70;;;21.90;79.60;;;;;;5060641;28;20040;-67
2022/08/04 05:58:51;;;;;;;7.47;3.63;;;22.00;79.20;;;;;;5063642;28;20098;-67
2022/08/04 06:01:18;;;;;;;11.73;3.90;;;22.00;78.90;;;;;;5066226;28;20047;-67
2022/08/04 06:03:46;;;;;;;10.13;4.80;;;22.10;79.00;;;;;;5049660;28;20201;-67
2022/08/04 06:06:14;;;;;;;8.63;4.33;;;22.10;78.80;;;;;;5064783;28;20055;-67
2022/08/04 06:08:40;;;;;;;9.93;4.30;;;22.10;78.50;;;;;;5083081;28;20043;-67
2022/08/04 06:11:08;;;;;;;7.83;4.50;;;22.10;78.50;;;;;;5064953;28;20393;-67
2022/08/04 06:13:45;;;;;;;8.27;4.13;;;22.20;78.50;;;;;;5064622;28;20671;-67
2022/08/04 06:16:13;;;;;;;9.10;4.43;;;22.30;78.30;;;;;;5065817;28;20044;-67
2022/08/04 06:18:42;;;;;;;6.53;3.77;;;22.30;78.10;;;;;;5055461;28;20051;-67
2022/08/04 06:21:10;;;;;;;8.50;4.10;;;22.40;77.80;;;;;;5059999;28;20173;-67
2022/08/04 06:23:39;;;;;;;7.43;3.67;;;22.60;77.80;;;;;;5059415;28;20560;-67
2022/08/04 06:26:08;;;;;;;9.07;4.10;;;22.80;77.70;;;;;;5073861;28;20098;-67
2022/08/04 06:28:36;;;;;;;7.63;4.50;;;23.10;77.30;;;;;;5057953;28;20082;-67
2022/08/04 06:31:04;;;;;;;7.00;3.67;;;23.30;76.20;;;;;;5034861;28;20451;-67
2022/08/04 06:33:35;;;;;;;6.77;3.70;;;23.40;75.00;;;;;;5048554;28;20084;-67
2022/08/04 06:36:03;;;;;;;8.93;3.77;;;23.60;74.90;;;;;;5077978;28;20102;-67
2022/08/04 06:38:31;;;;;;;8.20;3.93;;;23.70;74.70;;;;;;5081087;28;20070;-67
2022/08/04 06:40:57;;;;;;;9.37;4.30;;;23.80;74.30;;;;;;5042202;28;20274;-67
2022/08/04 06:43:27;;;;;;;10.77;4.30;;;23.80;74.20;;;;;;5064544;28;20131;-67
2022/08/04 06:45:56;;;;;;;9.50;3.90;;;23.90;73.60;;;;;;5063411;28;20090;-67
2022/08/04 06:48:23;;;;;;;9.37;4.50;;;23.80;73.30;;;;;;5037700;28;20047;-67
2022/08/04 06:50:50;;;;;;;8.07;4.23;;;23.70;73.20;;;;;;5065783;28;20044;-67
2022/08/04 06:53:17;;;;;;;11.73;5.23;;;23.60;73.50;;;;;;5063465;28;20048;-67
2022/08/04 06:55:47;;;;;;;6.83;4.67;;;23.60;74.10;;;;;;5041599;28;20032;-67
2022/08/04 06:58:14;;;;;;;10.13;4.30;;;23.50;74.80;;;;;;5064431;28;20475;-67
2022/08/04 07:00:42;;;;;;;7.93;3.77;;;23.50;74.10;;;;;;5078503;28;20028;-67
2022/08/04 07:03:09;;;;;;;8.50;3.70;;;23.40;73.40;;;;;;5065660;28;20037;-67
2022/08/04 07:05:35;;;;;;;8.73;4.13;;;23.30;73.10;;;;;;5065352;28;20496;-67
2022/08/04 07:08:01;;;;;;;10.93;3.67;;;23.30;73.30;;;;;;5065468;28;20119;-67
2022/08/04 07:10:27;;;;;;;9.27;4.40;;;23.30;73.30;;;;;;5065266;28;20123;-67
2022/08/04 07:12:55;;;;;;;7.90;3.90;;;23.30;73.40;;;;;;5061016;28;20040;-67
2022/08/04 07:15:22;;;;;;;8.77;5.10;;;23.30;73.80;;;;;;5064575;28;20468;-67
2022/08/04 07:17:49;;;;;;;6.40;3.70;;;23.40;73.20;;;;;;5063928;28;20040;-67
2022/08/04 07:20:15;;;;;;;10.20;4.10;;;23.40;73.10;;;;;;5063776;28;20048;-67
2022/08/04 07:22:42;;;;;;;8.37;3.70;;;23.20;73.00;;;;;;5064616;28;20397;-67
2022/08/04 07:25:09;;;;;;;6.57;3.97;;;23.20;73.30;;;;;;5055849;28;20072;-67
2022/08/04 07:27:35;;;;;;;8.90;3.87;;;23.10;73.80;;;;;;5061896;28;20045;-67
2022/08/04 07:30:04;;;;;;;7.40;3.70;;;23.20;74.10;;;;;;5061352;28;20293;-67
2022/08/04 07:32:30;;;;;;;9.07;4.33;;;23.20;74.20;;;;;;5064311;28;20051;-67
2022/08/04 07:34:57;;;;;;;8.77;4.30;;;23.30;74.00;;;;;;5048744;28;20044;-67
2022/08/04 07:37:23;;;;;;;7.83;4.20;;;23.20;73.80;;;;;;5063612;28;20043;-67
2022/08/04 07:39:49;;;;;;;6.37;3.80;;;23.20;74.00;;;;;;5064646;28;20050;-67
2022/08/04 07:42:18;;;;;;;5.90;3.73;;;23.20;74.30;;;;;;5061978;28;20063;-67
2022/08/04 07:44:45;;;;;;;8.83;4.00;;;23.20;74.20;;;;;;5063339;28;20044;-67
2022/08/04 07:47:11;;;;;;;9.03;4.33;;;23.10;74.20;;;;;;5060304;28;20028;-67
2022/08/04 07:49:37;;;;;;;8.57;4.37;;;23.10;74.20;;;;;;5064180;28;20041;-67
2022/08/04 07:52:05;;;;;;;6.57;3.57;;;23.10;74.30;;;;;;5063569;28;20040;-67
2022/08/04 07:54:31;;;;;;;6.27;3.30;;;23.00;74.30;;;;;;5058675;28;20051;-67
2022/08/04 07:56:57;;;;;;;5.77;3.30;;;23.00;74.80;;;;;;5064745;28;20110;-67
2022/08/04 07:59:23;;;;;;;7.27;3.40;;;23.10;74.70;;;;;;5051276;28;20040;-67
2022/08/04 08:01:49;;;;;;;7.30;3.93;;;23.20;74.70;;;;;;5061562;28;20485;-68
2022/08/04 08:04:16;;;;;;;8.37;3.57;;;23.30;74.60;;;;;;5060682;28;20032;-67
2022/08/04 08:06:42;;;;;;;8.50;3.23;;;23.40;73.90;;;;;;5064328;28;20097;-67
2022/08/04 08:09:08;;;;;;;8.10;3.80;;;23.40;73.90;;;;;;5046572;28;20474;-67
2022/08/04 08:11:35;;;;;;;5.93;3.30;;;23.50;74.00;;;;;;5064256;28;20109;-67
2022/08/04 08:14:01;;;;;;;6.00;3.40;;;23.70;73.90;;;;;;5047680;28;20097;-68
2022/08/04 08:16:27;;;;;;;5.50;2.50;;;23.80;73.70;;;;;;5061653;28;20043;-68
2022/08/04 08:18:54;;;;;;;6.33;2.70;;;24.00;72.90;;;;;;5057531;28;20032;-67
2022/08/04 08:21:21;;;;;;;7.07;2.97;;;24.20;71.80;;;;;;5053983;28;20052;-66
2022/08/04 08:23:49;;;;;;;8.20;2.97;;;24.40;71.60;;;;;;5055880;28;20076;-65
2022/08/04 08:26:15;;;;;;;6.60;3.33;;;24.50;71.30;;;;;;5052837;28;20049;-65
2022/08/04 08:28:40;;;;;;;10.27;3.00;;;24.60;71.10;;;;;;5055657;28;20047;-66
2022/08/04 08:31:06;;;;;;;7.47;3.17;;;24.70;71.50;;;;;;5055441;28;20477;-65
2022/08/04 08:33:32;;;;;;;5.30;2.43;;;24.80;71.30;;;;;;5053604;28;20057;-66
2022/08/04 08:36:16;;;;;;;7.67;2.80;;;24.90;70.90;;;;;;5037363;28;20547;-66
2022/08/04 08:38:45;;;;;;;5.15;2.50;;;24.90;70.10;;;;;;5057452;28;20060;-65
2022/08/04 08:41:50;;;;;;;5.63;2.20;;;24.90;70.50;;;;;;5061232;28;20048;-66
2022/08/04 08:44:37;;;;;;;7.07;2.60;;;25.00;70.10;;;;;;5057502;28;20139;-65
2022/08/04 08:47:29;;;;;;;3.60;1.97;;;25.10;70.30;;;;;;5059969;28;20091;-65
2022/08/04 08:50:34;;;;;;;4.07;1.80;;;25.20;69.90;;;;;;5056838;28;20127;-66
2022/08/04 08:53:30;;;;;;;8.52;1.80;;;25.40;68.90;;;;;;5061963;28;20032;-65
2022/08/04 08:56:27;;;;;;;4.10;1.20;;;25.50;67.30;;;;;;5058900;28;20051;-66
2022/08/04 08:58:56;;;;;;;3.63;1.20;;;25.70;66.20;;;;;;5060736;28;20071;-66
2022/08/04 09:01:33;;;;;;;4.97;1.27;;;25.70;65.40;;;;;;5059808;28;20078;-66
2022/08/04 09:04:19;;;;;;;7.30;1.10;;;25.80;64.70;;;;;;5039670;28;20412;-65
2022/08/04 09:07:07;;;;;;;2.13;0.73;;;25.80;64.10;;;;;;5056281;28;21258;-65
2022/08/04 09:09:35;;;;;;;2.83;0.80;;;25.80;63.20;;;;;;5060098;28;20389;-65
2022/08/04 09:12:13;;;;;;;3.47;0.80;;;25.90;62.80;;;;;;5047179;28;20055;-66
2022/08/04 09:14:50;;;;;;;3.10;1.13;;;26.00;63.00;;;;;;5057903;28;20036;-66
2022/08/04 09:17:36;;;;;;;2.97;0.50;;;26.20;62.50;;;;;;5058590;28;20167;-66
2022/08/04 09:20:20;;;;;;;2.43;0.60;;;26.40;62.80;;;;;;5072365;28;20071;-66
2022/08/04 09:22:55;;;;;;;2.58;0.60;;;26.50;61.30;;;;;;5077660;28;20064;-66
2022/08/04 09:25:38;;;;;;;4.80;0.80;;;26.60;60.60;;;;;;5061718;28;20045;-65
2022/08/04 09:28:19;;;;;;;2.03;0.73;;;26.70;60.00;;;;;;5079566;28;20102;-66
2022/08/04 09:30:58;;;;;;;1.37;0.70;;;26.70;59.10;;;;;;5060022;28;20075;-66
2022/08/04 09:33:27;;;;;;;1.63;0.60;;;26.70;58.80;;;;;;5075292;28;20044;-66
2022/08/04 09:35:58;;;;;;;1.23;0.60;;;26.80;59.40;;;;;;5076542;28;20401;-68
2022/08/04 09:38:55;;;;;;;3.77;0.50;;;26.90;60.30;;;;;;5065459;28;20622;-68
2022/08/04 09:42:23;;;;;;;1.03;0.40;;;26.90;57.10;;;;;;5057399;28;20115;-66
2022/08/04 09:44:59;;;;;;;2.97;0.70;;;27.00;57.40;;;;;;4975132;28;20057;-66
2022/08/04 09:47:52;;;;;;;3.57;1.20;;;27.00;55.70;;;;;;4984038;28;20530;-66
2022/08/04 09:50:28;;;;;;;8.70;0.97;;;27.00;57.10;;;;;;5037205;28;20041;-65
2022/08/04 09:53:12;;;;;;;2.03;0.90;;;26.90;55.60;;;;;;5061289;28;20040;-65
2022/08/04 09:55:44;;;;;;;4.40;0.70;;;26.90;56.70;;;;;;5065616;28;20040;-66
2022/08/04 09:58:25;;;;;;;2.50;0.70;;;26.90;55.90;;;;;;5064193;28;20408;-66
2022/08/04 10:01:05;;;;;;;2.63;0.60;;;26.80;55.10;;;;;;5059879;28;20060;-66
2022/08/04 10:03:34;;;;;;;5.63;0.93;;;26.70;54.70;;;;;;5080488;28;20096;-66
2022/08/04 10:06:18;;;;;;;1.80;0.70;;;26.70;55.50;;;;;;5063359;28;20094;-68
2022/08/04 10:09:02;;;;;;;3.00;0.83;;;26.80;55.10;;;;;;5066053;28;20040;-68
2022/08/04 10:11:43;;;;;;;5.28;1.00;;;26.70;56.10;;;;;;5080397;28;20040;-68
2022/08/04 10:14:35;;;;;;;2.73;1.03;;;26.50;56.70;;;;;;5074954;28;20124;-65
2022/08/04 10:17:34;;;;;;;2.63;0.80;;;26.50;57.20;;;;;;5046987;28;20143;-65
2022/08/04 10:20:29;;;;;;;0.80;0.40;;;26.40;56.50;;;;;;5044894;28;20448;-66
2022/08/04 10:23:10;;;;;;;2.45;0.82;;;26.50;55.90;;;;;;5065425;28;20044;-66
2022/08/04 10:26:13;;;;;;;1.83;0.60;;;26.60;55.30;;;;;;5063305;28;20120;-66
2022/08/04 10:29:07;;;;;;;1.13;0.70;;;26.90;54.90;;;;;;5062750;28;20064;-66
2022/08/04 10:31:41;;;;;;;1.67;0.70;;;27.10;55.30;;;;;;5063515;28;20050;-66
2022/08/04 10:34:20;;;;;;;2.33;1.00;;;27.30;54.40;;;;;;5049441;28;20410;-66
2022/08/04 10:36:59;;;;;;;3.07;0.50;;;27.40;53.80;;;;;;5057959;28;20044;-66
2022/08/04 10:40:35;;;;;;;1.13;0.50;;;27.50;52.80;;;;;;5080473;28;20401;-66
2022/08/04 10:42:30;;;;;;;1.00;0.47;;;27.50;53.30;;;;;;5065314;28;20528;-66
2022/08/04 10:45:22;;;;;;;3.37;0.70;;;27.40;51.60;;;;;;5069075;28;20249;-66
2022/08/04 10:48:26;;;;;;;1.37;0.40;;;27.30;51.80;;;;;;5046130;28;20044;-66
2022/08/04 10:51:33;;;;;;;1.93;0.43;;;27.20;52.60;;;;;;5061223;28;20040;-66
2022/08/04 10:54:04;;;;;;;2.77;0.50;;;27.10;50.30;;;;;;5061904;28;20044;-66
2022/08/04 10:56:40;;;;;;;2.73;0.80;;;27.00;51.70;;;;;;5061273;28;20070;-66
2022/08/04 10:59:23;;;;;;;1.60;0.40;;;27.00;51.20;;;;;;5063781;28;20045;-65
2022/08/04 11:01:53;;;;;;;2.43;0.40;;;26.90;51.60;;;;;;5056969;28;20048;-66
2022/08/04 11:04:29;;;;;;;3.13;0.93;;;26.90;51.40;;;;;;5059662;28;20112;-66
2022/08/04 11:06:58;;;;;;;2.27;0.70;;;26.80;52.00;;;;;;5061886;28;20119;-66
2022/08/04 11:09:25;;;;;;;1.40;0.40;;;26.80;52.10;;;;;;5074382;28;20047;-66
2022/08/04 11:11:55;;;;;;;3.13;0.57;;;26.70;51.60;;;;;;5033479;28;20396;-66
2022/08/04 11:14:32;;;;;;;2.97;0.70;;;26.50;51.60;;;;;;5055253;28;20684;-66
2022/08/04 11:17:04;;;;;;;2.27;0.40;;;26.50;51.90;;;;;;5063099;28;20048;-66
2022/08/04 11:19:33;;;;;;;1.97;0.67;;;26.50;51.50;;;;;;5054854;28;20047;-65
2022/08/04 11:22:06;;;;;;;1.67;0.80;;;26.50;51.70;;;;;;5062695;28;20450;-66
2022/08/04 11:24:39;;;;;;;2.30;0.60;;;26.50;50.90;;;;;;5061084;28;20068;-65
2022/08/04 11:27:12;;;;;;;1.13;0.47;;;26.50;51.10;;;;;;5060853;28;20040;-66
2022/08/04 11:30:03;;;;;;;2.50;0.40;;;26.50;51.10;;;;;;5059143;28;20067;-66
2022/08/04 11:33:04;;;;;;;2.27;0.60;;;26.50;51.60;;;;;;5053047;28;20047;-66
2022/08/04 11:35:39;;;;;;;1.00;0.40;;;26.40;52.40;;;;;;5075435;28;20473;-66
2022/08/04 11:38:25;;;;;;;1.77;0.60;;;26.50;52.90;;;;;;5073064;28;20041;-65
2022/08/04 11:40:57;;;;;;;3.27;0.87;;;26.60;53.20;;;;;;5058973;28;20146;-66
2022/08/04 11:43:50;;;;;;;3.43;0.60;;;26.60;53.90;;;;;;5064590;28;20048;-66
2022/08/04 11:46:42;;;;;;;4.80;0.80;;;26.70;55.20;;;;;;5072729;28;20037;-68
2022/08/04 11:49:20;;;;;;;3.47;0.97;;;26.80;54.50;;;;;;5047490;28;20040;-66
2022/08/04 11:51:49;;;;;;;1.27;0.50;;;26.80;54.20;;;;;;5078696;28;20458;-66
2022/08/04 11:54:17;;;;;;;1.53;0.60;;;26.90;54.30;;;;;;5059627;28;20378;-67
2022/08/04 11:56:45;;;;;;;3.33;0.60;;;26.90;54.30;;;;;;5029540;28;20048;-67
2022/08/04 11:59:10;;;;;;;1.67;0.50;;;27.00;54.10;;;;;;5079827;28;20051;-67
2022/08/04 12:02:06;;;;;;;1.27;0.40;;;27.00;52.70;;;;;;5061224;28;20057;-67
2022/08/04 12:04:49;;;;;;;;;;;26.90;52.30;;;;;;5071244;28;20335;-67
2022/08/04 12:07:37;;;;;;;1.77;0.87;;;27.10;51.40;;;;;;5060208;28;19921;-67
2022/08/04 12:10:21;;;;;;;2.90;0.63;;;27.30;51.10;;;;;;5060146;28;20507;-67
2022/08/04 12:12:54;;;;;;;2.47;0.80;;;27.30;50.40;;;;;;5059986;28;20063;-67
2022/08/04 12:15:26;;;;;;;2.00;0.43;;;27.50;52.00;;;;;;5055678;28;20040;-67
2022/08/04 12:18:19;;;;;;;2.30;0.53;;;27.70;49.60;;;;;;5060427;28;20048;-67
2022/08/04 12:20:49;;;;;;;1.10;0.50;;;27.80;48.40;;;;;;5057396;28;20036;-67
2022/08/04 12:23:23;;;;;;;2.67;0.70;;;27.70;47.90;;;;;;5055638;28;20104;-66
2022/08/04 12:25:53;;;;;;;1.63;0.33;;;27.70;48.60;;;;;;5056681;28;20040;-67
2022/08/04 12:28:30;;;;;;;2.30;0.53;;;27.80;49.20;;;;;;5059953;28;21245;-67
2022/08/04 12:31:11;;;;;;;1.73;0.50;;;27.90;49.70;;;;;;5054839;28;20067;-67
2022/08/04 12:33:46;;;;;;;3.37;0.60;;;28.00;49.60;;;;;;5061403;28;20079;-67
2022/08/04 12:36:23;;;;;;;2.43;0.70;;;27.90;49.30;;;;;;5046870;28;20041;-67
2022/08/04 12:39:16;;;;;;;2.93;0.43;;;28.00;50.20;;;;;;5047542;28;20041;-67
2022/08/04 12:42:14;;;;;;;1.67;0.40;;;28.20;49.60;;;;;;5039992;28;20134;-67
2022/08/04 12:44:41;;;;;;;2.63;0.70;;;28.40;49.00;;;;;;5062155;28;20072;-67
2022/08/04 12:47:10;;;;;;;2.27;0.70;;;28.50;48.70;;;;;;5063120;28;20106;-67
2022/08/04 12:49:38;;;;;;;3.00;0.43;;;28.60;48.50;;;;;;5059925;28;20514;-67
2022/08/04 12:52:06;;;;;;;2.20;0.50;;;28.60;48.30;;;;;;5061683;28;20475;-67
2022/08/04 12:54:34;;;;;;;2.37;0.67;;;28.80;48.30;;;;;;5068930;28;20068;-67
2022/08/04 12:57:03;;;;;;;2.83;0.70;;;28.80;47.50;;;;;;5024021;28;20044;-67
2022/08/04 12:59:29;;;;;;;3.73;0.70;;;28.80;47.90;;;;;;5043374;28;20055;-67
2022/08/04 13:01:56;;;;;;;3.70;0.77;;;28.60;47.20;;;;;;5055231;28;20048;-67
2022/08/04 13:04:26;;;;;;;2.17;0.50;;;28.30;47.30;;;;;;5054706;28;20033;-67
2022/08/04 13:07:09;;;;;;;2.47;0.50;;;28.20;48.50;;;;;;5058825;28;20044;-67
2022/08/04 13:09:37;;;;;;;2.37;0.70;;;28.00;47.90;;;;;;5062180;28;20072;-67
2022/08/04 13:12:10;;;;;;;2.83;0.50;;;27.80;48.00;;;;;;5063364;28;20032;-67
2022/08/04 13:14:38;;;;;;;2.43;0.73;;;27.50;49.70;;;;;;5062496;28;20072;-67
2022/08/04 13:17:05;;;;;;;2.50;0.63;;;27.30;49.60;;;;;;5062451;28;20276;-67
2022/08/04 13:19:31;;;;;;;5.07;1.30;;;27.30;49.90;;;;;;5066359;28;20098;-67
2022/08/04 13:21:59;;;;;;;3.17;0.83;;;27.30;49.40;;;;;;5043058;28;20040;-67
2022/08/04 13:24:26;;;;;;;5.70;0.90;;;27.30;49.90;;;;;;5058866;28;20077;-67
2022/08/04 13:27:09;;;;;;;3.53;1.20;;;27.40;51.00;;;;;;5074560;28;20482;-67
2022/08/04 13:29:44;;;;;;;3.53;0.73;;;27.50;49.90;;;;;;5063409;28;20045;-67
2022/08/04 13:32:14;;;;;;;5.40;1.10;;;27.50;47.90;;;;;;5048713;28;20174;-67
2022/08/04 13:34:42;;;;;;;3.37;0.70;;;27.30;48.50;;;;;;5031487;28;20044;-67
2022/08/04 13:37:09;;;;;;;5.13;1.53;;;27.10;49.80;;;;;;5064249;28;20124;-67
2022/08/04 13:39:38;;;;;;;4.53;1.40;;;26.90;51.20;;;;;;5064455;28;20071;-67
2022/08/04 13:42:09;;;;;;;5.00;1.13;;;26.90;52.30;;;;;;5065495;28;20041;-67